To NAV CANADA Home Page Login to a new session Search on AWWS site Disclaimer Vers la page française équivalente Tips FAQ What's new on the site To the Forecasts and Observations / NOTAM section To "File a Flight Plan" website Publications and other links Update of the User's profile FIC Telephone Numbers My Weather Data Folder Route Weather Data Regional Weather Data Local Weather Data To the Forecasts and Observations / NOTAM section
Request Generated 02/20/2020 at 18:22:27 UTC . Weather information available at that time is displayed.

METAR/TAF

GANDER INTL/NL    

METAR CYQX 201800Z 28019G26KT 15SM -SHSN FEW022 SCT032 BKN040 M10/M15 A2964 RMK SC1SC3SC3 CVCTV CLD EMBD SLP048=
SPECI CYQX 201749Z 26021G32KT 15SM -SHSN FEW022 SCT032 BKN040 M09/M17 A2963 RMK SC1SC2SC3 CVCTV CLD EMBD SLP046=
SPECI CYQX 201743Z 26018G31KT 15SM FEW022 SCT032 BKN040 M09/M17 A2963 RMK SC1SC2SC2 SLP045=
METAR CYQX 201700Z 26020G32KT 10SM -SHSN DRSN SCT022 BKN032 M09/M14 A2962 RMK SC3SC3 CVCTV CLD EMBD SLP042=
SPECI CYQX 201643Z 27019G30KT 3SM R03/3500VP6000FT/N -SHSN DRSN FEW005 FEW012 SCT022 BKN030 M10/M15 A2962 RMK SF1SC1SC1SC2 SLP041=
SPECI CYQX 201633Z 27018G31KT 2 1/2SM R13/3000VP6000FT/N R03/2600FT/N -SHSN DRSN SCT005 BKN012 BKN022 M09/M12 A2962 RMK SN2SF1SC2SC2
CVCTV CLD EMBD SLP041=
METAR CYQX 201600Z 27017G28KT 12SM -SHSN FEW012 SCT022 BKN030 BKN048 M08/M14 A2961 RMK SC1SC3SC1SC1 CVCTV CLD EMBD SLP038=

TAF CYQX 201738Z 2018/2118 27020G35KT P6SM SCT015 BKN030 TEMPO
2018/2022 3SM -SN BKN015 BKN030
FM202200 27020G30KT P6SM SCT030
BECMG 2116/2118 27015G25KT
RMK NXT FCST BY 210000Z=
Your time UTC time
Weather data provided by Environment Canada and NAV CANADA